createdAt,value
2018-06-25T00:01:08.077Z,85.80
2018-06-25T00:03:36.526Z,86.10
2018-06-25T00:06:04.916Z,86.10
2018-06-25T00:08:33.334Z,85.80
2018-06-25T00:11:01.794Z,85.60
2018-06-25T00:13:30.208Z,86.10
2018-06-25T00:15:58.689Z,86.50
2018-06-25T00:18:27.055Z,85.70
2018-06-25T00:20:55.498Z,85.80
2018-06-25T00:23:23.870Z,85.90
2018-06-25T00:25:52.312Z,85.50
2018-06-25T00:28:20.662Z,85.10
2018-06-25T00:30:49.379Z,85.50
2018-06-25T00:33:17.755Z,85.60
2018-06-25T00:35:46.447Z,86.50
2018-06-25T00:38:14.898Z,86.40
2018-06-25T00:40:43.208Z,86.60
2018-06-25T00:43:12.760Z,85.80
2018-06-25T00:45:41.667Z,85.50
2018-06-25T00:48:10.093Z,85.20
2018-06-25T00:50:38.485Z,84.90
2018-06-25T00:53:06.955Z,85.80
2018-06-25T00:55:35.376Z,85.90
2018-06-25T00:58:03.701Z,86.20
2018-06-25T01:00:32.150Z,85.50
2018-06-25T01:03:00.615Z,85.80
2018-06-25T01:05:29.004Z,85.60
2018-06-25T01:07:57.373Z,85.80
2018-06-25T01:10:25.864Z,86.00
2018-06-25T01:12:54.359Z,86.20
2018-06-25T01:15:22.737Z,85.80
2018-06-25T01:17:51.100Z,86.40
2018-06-25T01:20:19.465Z,86.10
2018-06-25T01:22:48.136Z,86.70
2018-06-25T01:25:16.512Z,86.60
2018-06-25T01:27:44.938Z,86.00
2018-06-25T01:30:13.333Z,86.10
2018-06-25T01:32:41.812Z,86.20
2018-06-25T01:35:10.269Z,86.60
2018-06-25T01:37:38.689Z,86.60
2018-06-25T01:40:07.100Z,86.30
2018-06-25T01:42:35.470Z,86.50
2018-06-25T01:45:03.995Z,86.60
2018-06-25T01:47:32.362Z,86.10
2018-06-25T01:50:00.796Z,86.40
2018-06-25T01:52:29.268Z,87.50
2018-06-25T01:54:57.619Z,87.10
2018-06-25T01:57:26.049Z,86.70
2018-06-25T01:59:54.789Z,87.20
2018-06-25T02:02:23.257Z,86.90
2018-06-25T02:04:52.310Z,87.70
2018-06-25T02:07:20.864Z,88.30
2018-06-25T02:09:49.591Z,88.00
2018-06-25T02:12:17.933Z,87.50
2018-06-25T02:14:46.314Z,87.20
2018-06-25T02:17:14.749Z,86.60
2018-06-25T02:19:43.191Z,86.80
2018-06-25T02:22:11.573Z,86.70
2018-06-25T02:24:39.989Z,86.60
2018-06-25T02:27:08.392Z,86.20
2018-06-25T02:29:36.798Z,86.50
2018-06-25T02:32:05.499Z,86.70
2018-06-25T02:34:34.078Z,86.60
2018-06-25T02:37:02.979Z,86.20
2018-06-25T02:39:31.489Z,86.30
2018-06-25T02:41:59.807Z,87.20
2018-06-25T02:44:28.460Z,86.80
2018-06-25T02:46:56.917Z,86.90
2018-06-25T02:49:25.379Z,86.70
2018-06-25T02:51:53.896Z,87.20
2018-06-25T02:54:22.290Z,87.20
2018-06-25T02:56:50.888Z,86.80
2018-06-25T02:59:19.411Z,87.00
2018-06-25T03:01:47.758Z,87.20
2018-06-25T03:04:16.507Z,87.50
2018-06-25T03:09:13.051Z,86.70
2018-06-25T03:11:41.467Z,86.80
2018-06-25T03:14:09.895Z,87.00
2018-06-25T03:16:38.321Z,87.20
2018-06-25T03:19:06.924Z,87.20
2018-06-25T03:21:35.361Z,87.20
2018-06-25T03:24:03.798Z,87.00
2018-06-25T03:26:32.246Z,87.20
2018-06-25T03:29:00.698Z,87.20
2018-06-25T03:31:29.042Z,87.40
2018-06-25T03:36:39.569Z,87.30
2018-06-25T03:39:09.574Z,87.20
2018-06-25T03:41:37.935Z,87.50
2018-06-25T03:44:06.297Z,87.90
2018-06-25T03:51:31.697Z,86.90
2018-06-25T03:54:00.090Z,87.20
2018-06-25T03:56:28.495Z,87.80
2018-06-25T03:58:56.855Z,87.20
2018-06-25T04:01:25.307Z,87.10
2018-06-25T04:03:53.719Z,87.80
2018-06-25T04:06:22.124Z,87.80
2018-06-25T04:08:50.844Z,87.90
2018-06-25T04:11:19.250Z,87.50
2018-06-25T04:13:47.660Z,87.30
2018-06-25T04:16:16.093Z,88.20
2018-06-25T04:18:48.342Z,87.90
2018-06-25T04:21:16.705Z,87.50
2018-06-25T04:23:45.129Z,87.70
2018-06-25T04:26:13.514Z,87.70
2018-06-25T04:28:42.000Z,87.60
2018-06-25T04:31:10.361Z,87.50
2018-06-25T04:33:39.100Z,87.80
2018-06-25T04:36:07.550Z,87.60
2018-06-25T04:38:37.615Z,86.90
2018-06-25T04:41:06.144Z,87.10
2018-06-25T04:43:34.727Z,86.70
2018-06-25T04:46:03.381Z,86.70
2018-06-25T04:48:31.760Z,87.00
2018-06-25T04:51:00.204Z,86.60
2018-06-25T04:53:28.584Z,86.60
2018-06-25T04:58:25.140Z,86.40
2018-06-25T05:00:53.826Z,86.90
2018-06-25T05:03:22.241Z,87.50
2018-06-25T05:05:50.682Z,86.60
2018-06-25T05:08:19.061Z,87.00
2018-06-25T05:10:47.468Z,86.90
2018-06-25T05:13:15.897Z,86.80
2018-06-25T05:15:44.320Z,87.70
2018-06-25T05:18:13.695Z,87.50
2018-06-25T05:20:42.074Z,87.40
2018-06-25T05:23:10.472Z,87.80
2018-06-25T05:25:38.824Z,88.10
2018-06-25T05:28:07.520Z,87.90
2018-06-25T05:30:35.960Z,87.40
2018-06-25T05:33:04.496Z,87.80
2018-06-25T05:35:32.986Z,87.20
2018-06-25T05:38:01.450Z,87.40
2018-06-25T05:40:29.869Z,87.50
2018-06-25T05:42:58.741Z,88.00
2018-06-25T05:45:27.153Z,87.10
2018-06-25T05:47:56.109Z,86.70
2018-06-25T05:50:24.542Z,86.40
2018-06-25T05:52:52.964Z,85.90
2018-06-25T05:55:21.334Z,85.90
2018-06-25T05:57:49.774Z,85.90
2018-06-25T06:00:18.327Z,86.00
2018-06-25T06:02:46.841Z,86.40
2018-06-25T06:05:15.269Z,86.10
2018-06-25T06:10:12.114Z,85.80
2018-06-25T06:12:40.572Z,85.80
2018-06-25T06:15:08.993Z,85.90
2018-06-25T06:17:37.464Z,86.60
2018-06-25T06:20:06.022Z,86.00
2018-06-25T06:22:34.339Z,85.70
2018-06-25T06:25:02.738Z,86.00
2018-06-25T06:27:31.080Z,86.00
2018-06-25T06:29:59.854Z,86.10
2018-06-25T06:32:28.282Z,86.00
2018-06-25T06:34:56.688Z,86.10
2018-06-25T06:37:25.188Z,85.50
2018-06-25T06:39:53.578Z,85.20
2018-06-25T06:42:22.013Z,84.70
2018-06-25T06:44:50.352Z,84.30
2018-06-25T06:47:18.681Z,84.70
2018-06-25T06:49:47.307Z,83.70
2018-06-25T06:52:18.897Z,83.40
2018-06-25T06:54:47.621Z,82.90
2018-06-25T06:57:15.970Z,82.50
2018-06-25T06:59:44.398Z,82.30
2018-06-25T07:02:12.904Z,82.90
2018-06-25T07:07:09.849Z,83.20
2018-06-25T07:09:38.261Z,82.80
2018-06-25T07:12:06.681Z,82.00
2018-06-25T07:14:35.033Z,82.00
2018-06-25T07:17:03.366Z,81.60
2018-06-25T07:19:31.752Z,82.20
2018-06-25T07:22:00.152Z,82.30
2018-06-25T07:24:28.576Z,82.70
2018-06-25T07:26:56.977Z,81.40
2018-06-25T07:29:25.432Z,82.20
2018-06-25T07:31:54.040Z,82.30
2018-06-25T07:34:22.517Z,81.90
2018-06-25T07:36:50.913Z,81.50
2018-06-25T07:39:19.345Z,81.00
2018-06-25T07:41:47.864Z,81.60
2018-06-25T07:44:16.234Z,81.70
2018-06-25T07:46:44.656Z,81.40
2018-06-25T07:49:13.122Z,81.50
2018-06-25T07:51:41.827Z,81.00
2018-06-25T07:54:10.335Z,80.70
2018-06-25T07:56:38.765Z,80.80
2018-06-25T07:59:07.118Z,80.90
2018-06-25T08:01:35.598Z,81.20
2018-06-25T08:04:03.949Z,81.80
2018-06-25T08:06:32.399Z,81.40
2018-06-25T08:09:00.773Z,80.60
2018-06-25T08:11:29.150Z,80.60
2018-06-25T08:13:57.817Z,80.80
2018-06-25T08:16:26.187Z,80.20
2018-06-25T08:19:05.374Z,78.90
2018-06-25T08:21:33.813Z,79.00
2018-06-25T08:24:02.611Z,79.70
2018-06-25T08:26:31.056Z,79.30
2018-06-25T08:28:59.430Z,78.80
2018-06-25T08:31:27.737Z,78.10
2018-06-25T08:33:56.134Z,78.60
2018-06-25T08:36:24.542Z,78.80
2018-06-25T08:38:52.900Z,77.80
2018-06-25T08:41:22.253Z,78.70
2018-06-25T08:43:50.641Z,79.10
2018-06-25T08:46:19.032Z,79.00
2018-06-25T08:48:47.433Z,78.40
2018-06-25T08:51:15.858Z,78.80
2018-06-25T08:53:44.238Z,79.00
2018-06-25T08:56:12.650Z,79.00
2018-06-25T08:58:41.025Z,78.50
2018-06-25T09:01:09.388Z,77.60
2018-06-25T09:03:37.727Z,77.40
2018-06-25T09:06:06.081Z,78.00
2018-06-25T09:08:34.388Z,77.60
2018-06-25T09:11:02.810Z,78.50
2018-06-25T09:13:31.199Z,78.00
2018-06-25T09:15:59.844Z,77.70
2018-06-25T09:18:28.220Z,79.10
2018-06-25T09:20:56.559Z,77.90
2018-06-25T09:23:24.937Z,78.50
2018-06-25T09:25:53.259Z,78.00
2018-06-25T09:28:21.656Z,78.20
2018-06-25T09:30:49.990Z,77.70
2018-06-25T09:33:18.320Z,77.50
2018-06-25T09:35:46.673Z,76.90
2018-06-25T09:38:15.037Z,77.30
2018-06-25T09:40:43.418Z,75.10
2018-06-25T09:43:11.695Z,76.20
2018-06-25T09:45:40.093Z,75.70
2018-06-25T09:48:08.473Z,75.90
2018-06-25T09:50:36.832Z,76.60
2018-06-25T09:53:05.213Z,75.60
2018-06-25T09:55:33.526Z,76.60
2018-06-25T09:58:01.905Z,76.00
2018-06-25T10:00:35.637Z,75.20
2018-06-25T10:03:03.995Z,74.80
2018-06-25T10:05:32.327Z,74.90
2018-06-25T10:08:00.668Z,74.90
2018-06-25T10:10:29.005Z,75.00
2018-06-25T10:12:57.367Z,74.60
2018-06-25T10:15:25.782Z,75.50
2018-06-25T10:17:54.158Z,75.20
2018-06-25T10:20:22.533Z,76.00
2018-06-25T10:22:50.841Z,76.30
2018-06-25T10:25:19.167Z,76.60
2018-06-25T10:27:47.477Z,75.90
2018-06-25T10:30:15.833Z,77.00
2018-06-25T10:32:44.204Z,77.60
2018-06-25T10:35:12.548Z,77.90
2018-06-25T10:37:40.848Z,77.90
2018-06-25T10:42:37.409Z,76.80
2018-06-25T10:45:05.696Z,76.50
2018-06-25T10:47:34.029Z,76.70
2018-06-25T10:50:02.356Z,75.70
2018-06-25T10:54:58.874Z,75.70
2018-06-25T10:57:27.176Z,74.10
2018-06-25T10:59:55.698Z,72.40
2018-06-25T11:02:23.883Z,69.90
2018-06-25T11:04:52.203Z,69.10
2018-06-25T11:07:20.654Z,68.00
2018-06-25T11:09:48.926Z,66.90
2018-06-25T11:12:17.234Z,68.00
2018-06-25T11:14:45.620Z,66.40
2018-06-25T11:17:14.026Z,67.00
2018-06-25T11:19:42.417Z,65.00
2018-06-25T11:22:10.751Z,61.90
2018-06-25T11:24:39.079Z,61.00
2018-06-25T11:27:07.787Z,58.50
2018-06-25T11:29:35.880Z,58.60
2018-06-25T11:32:04.225Z,58.70
2018-06-25T11:34:32.605Z,60.60
2018-06-25T11:37:00.979Z,61.60
2018-06-25T11:39:29.429Z,61.80
2018-06-25T11:41:57.818Z,59.60
2018-06-25T11:44:26.236Z,58.90
2018-06-25T11:46:54.642Z,58.30
2018-06-25T11:49:23.092Z,58.30
2018-06-25T11:51:51.446Z,59.30
2018-06-25T11:54:19.777Z,58.00
2018-06-25T11:56:48.157Z,58.80
2018-06-25T11:59:16.589Z,59.50
2018-06-25T12:01:44.955Z,57.90
2018-06-25T12:04:13.417Z,59.20
2018-06-25T12:06:41.840Z,59.50
2018-06-25T12:09:11.399Z,59.40
2018-06-25T12:11:39.897Z,60.00
2018-06-25T12:14:08.327Z,58.30
2018-06-25T12:16:36.932Z,56.10
2018-06-25T12:19:05.369Z,54.90
2018-06-25T12:21:33.695Z,53.60
2018-06-25T12:24:02.352Z,54.80
2018-06-25T12:26:30.762Z,55.30
2018-06-25T12:28:59.144Z,55.80
2018-06-25T12:31:27.541Z,55.80
2018-06-25T12:33:55.917Z,56.60
2018-06-25T12:36:24.255Z,56.70
2018-06-25T12:38:52.705Z,54.20
2018-06-25T12:41:21.106Z,54.10
2018-06-25T12:43:51.433Z,53.80
2018-06-25T12:46:19.855Z,52.10
2018-06-25T12:48:48.671Z,54.60
2018-06-25T12:51:17.082Z,55.10
2018-06-25T12:53:45.526Z,53.70
2018-06-25T12:56:13.920Z,53.70
2018-06-25T12:58:42.289Z,53.40
2018-06-25T13:01:10.657Z,53.10
2018-06-25T13:03:39.079Z,53.20
2018-06-25T13:06:07.455Z,53.00
2018-06-25T13:08:35.915Z,52.20
2018-06-25T13:11:04.315Z,52.60
2018-06-25T13:13:32.685Z,54.50
2018-06-25T13:16:01.052Z,51.80
2018-06-25T13:20:57.444Z,51.80
2018-06-25T13:23:25.773Z,52.00
2018-06-25T13:25:54.218Z,52.50
2018-06-25T13:28:22.585Z,52.40
2018-06-25T13:30:50.997Z,52.40
2018-06-25T13:33:19.441Z,52.00
2018-06-25T13:35:48.014Z,50.90
2018-06-25T13:38:16.610Z,50.80
2018-06-25T13:40:44.992Z,51.00
2018-06-25T13:43:13.351Z,50.40
2018-06-25T13:45:41.720Z,50.70
2018-06-25T13:48:10.249Z,50.60
2018-06-25T13:50:38.677Z,50.60
2018-06-25T13:53:07.069Z,50.90
2018-06-25T13:55:35.490Z,51.00
2018-06-25T13:58:03.866Z,50.50
2018-06-25T14:00:32.278Z,50.80
2018-06-25T14:03:00.691Z,51.10
2018-06-25T14:05:29.037Z,51.80
2018-06-25T14:07:57.368Z,51.10
2018-06-25T14:10:25.719Z,51.20
2018-06-25T14:12:54.062Z,50.80
2018-06-25T14:15:23.229Z,50.80
2018-06-25T14:17:51.601Z,50.50
2018-06-25T14:20:20.585Z,50.40
2018-06-25T14:22:49.275Z,50.60
2018-06-25T14:25:17.610Z,51.10
2018-06-25T14:27:51.575Z,50.10
2018-06-25T14:30:27.387Z,50.00
2018-06-25T14:33:04.225Z,50.50
2018-06-25T14:35:32.817Z,50.50
2018-06-25T14:38:01.146Z,50.60
2018-06-25T14:40:29.611Z,50.20
2018-06-25T14:42:57.987Z,49.60
2018-06-25T14:45:26.297Z,49.30
2018-06-25T14:47:54.777Z,49.70
2018-06-25T14:50:23.868Z,51.50
2018-06-25T14:52:52.468Z,50.70
2018-06-25T14:55:21.097Z,50.90
2018-06-25T14:57:49.515Z,50.20
2018-06-25T15:00:20.901Z,50.20
2018-06-25T15:02:49.956Z,50.10
2018-06-25T15:05:18.318Z,51.00
2018-06-25T15:07:46.766Z,51.20
2018-06-25T15:10:15.169Z,51.50
2018-06-25T15:12:43.483Z,50.90
2018-06-25T15:15:11.871Z,51.10
2018-06-25T15:17:40.251Z,51.60
2018-06-25T15:20:08.608Z,51.40
2018-06-25T15:22:36.972Z,50.90
2018-06-25T15:25:05.487Z,51.10
2018-06-25T15:27:33.841Z,52.30
2018-06-25T15:30:02.277Z,51.50
2018-06-25T15:32:31.982Z,51.70
2018-06-25T15:35:00.765Z,52.10
2018-06-25T15:37:29.651Z,52.20
2018-06-25T15:39:58.856Z,52.40
2018-06-25T15:42:27.258Z,52.90
2018-06-25T15:44:55.590Z,51.70
2018-06-25T15:47:23.983Z,51.10
2018-06-25T15:49:52.408Z,51.60
2018-06-25T15:52:21.563Z,51.90
2018-06-25T15:54:49.921Z,51.60
2018-06-25T15:57:18.678Z,51.50
2018-06-25T15:59:47.051Z,51.70
2018-06-25T16:02:15.446Z,50.80
2018-06-25T16:07:11.943Z,49.60
2018-06-25T16:09:40.312Z,49.90
2018-06-25T16:12:08.695Z,49.40
2018-06-25T16:14:37.181Z,49.00
2018-06-25T16:17:05.647Z,48.50
2018-06-25T16:19:34.059Z,48.10
2018-06-25T16:22:02.624Z,48.20
2018-06-25T16:24:31.173Z,48.20
2018-06-25T16:26:59.991Z,48.80
2018-06-25T16:29:28.374Z,48.70
2018-06-25T16:31:56.954Z,49.40
2018-06-25T16:34:25.495Z,49.30
2018-06-25T16:36:54.968Z,51.00
2018-06-25T16:41:52.124Z,52.00
2018-06-25T16:44:20.605Z,52.10
2018-06-25T16:46:48.921Z,50.80
2018-06-25T16:49:17.475Z,52.20
2018-06-25T16:51:45.813Z,52.20
2018-06-25T16:54:14.283Z,51.60
2018-06-25T16:56:42.732Z,51.60
2018-06-25T16:59:11.132Z,51.10
2018-06-25T17:01:39.494Z,50.70
2018-06-25T17:04:07.924Z,51.30
2018-06-25T17:06:36.276Z,51.60
2018-06-25T17:09:08.932Z,51.90
2018-06-25T17:11:37.260Z,51.80
2018-06-25T17:14:05.557Z,52.30
2018-06-25T17:16:33.981Z,53.10
2018-06-25T17:19:02.314Z,53.40
2018-06-25T17:21:30.644Z,52.40
2018-06-25T17:24:02.230Z,52.60
2018-06-25T17:26:30.611Z,53.70
2018-06-25T17:28:59.049Z,54.80
2018-06-25T17:31:27.422Z,55.50
2018-06-25T17:33:55.851Z,56.00
2018-06-25T17:36:24.290Z,56.60
2018-06-25T17:38:52.653Z,56.90
2018-06-25T17:41:21.045Z,57.70
2018-06-25T17:43:49.507Z,58.60
2018-06-25T17:46:17.949Z,58.90
2018-06-25T17:48:46.301Z,58.80
2018-06-25T17:51:14.667Z,59.00
2018-06-25T17:53:43.048Z,59.30
2018-06-25T17:56:11.429Z,59.10
2018-06-25T17:58:39.819Z,59.10
2018-06-25T18:01:08.154Z,58.80
2018-06-25T18:03:36.779Z,58.90
2018-06-25T18:06:05.224Z,59.30
2018-06-25T18:08:33.602Z,60.00
2018-06-25T18:11:02.316Z,59.60
2018-06-25T18:13:30.670Z,60.30
2018-06-25T18:15:59.081Z,59.60
2018-06-25T18:20:56.079Z,60.10
2018-06-25T18:23:24.493Z,60.60
2018-06-25T18:25:52.905Z,61.00
2018-06-25T18:30:50.540Z,62.30
2018-06-25T18:33:18.956Z,62.80
2018-06-25T18:35:47.703Z,64.00
2018-06-25T18:38:16.125Z,64.80
2018-06-25T18:40:44.453Z,65.60
2018-06-25T18:43:13.081Z,66.20
2018-06-25T18:45:41.536Z,66.60
2018-06-25T18:48:09.916Z,66.90
2018-06-25T18:50:38.600Z,67.50
2018-06-25T18:53:07.226Z,67.80
2018-06-25T18:55:35.641Z,67.80
2018-06-25T18:58:03.985Z,68.30
2018-06-25T19:00:32.683Z,68.50
2018-06-25T19:03:00.996Z,68.60
2018-06-25T19:05:29.368Z,68.30
2018-06-25T19:07:57.685Z,68.60
2018-06-25T19:10:26.018Z,68.90
2018-06-25T19:12:54.587Z,69.40
2018-06-25T19:15:24.943Z,68.90
2018-06-25T19:17:53.343Z,68.50
2018-06-25T19:20:21.727Z,67.40
2018-06-25T19:22:50.092Z,65.10
2018-06-25T19:25:18.561Z,62.90
2018-06-25T19:27:47.192Z,59.60
2018-06-25T19:30:15.554Z,56.10
2018-06-25T19:32:43.898Z,54.40
2018-06-25T19:35:12.261Z,53.60
2018-06-25T19:37:40.731Z,53.60
2018-06-25T19:40:09.165Z,54.20
2018-06-25T19:42:37.563Z,54.50
2018-06-25T19:45:06.200Z,54.70
2018-06-25T19:47:34.791Z,56.40
2018-06-25T19:50:03.240Z,56.10
2018-06-25T19:52:31.601Z,57.70
2018-06-25T19:55:00.361Z,58.40
2018-06-25T19:57:28.809Z,59.00
2018-06-25T19:59:57.768Z,59.90
2018-06-25T20:02:26.214Z,60.20
2018-06-25T20:04:54.634Z,60.00
2018-06-25T20:07:23.021Z,61.10
2018-06-25T20:09:51.445Z,61.80
2018-06-25T20:14:48.322Z,62.50
2018-06-25T20:19:44.880Z,63.60
2018-06-25T20:22:13.625Z,63.90
2018-06-25T20:24:42.114Z,63.70
2018-06-25T20:27:10.632Z,63.90
2018-06-25T20:29:39.339Z,64.00
2018-06-25T20:34:36.231Z,63.60
2018-06-25T20:37:04.777Z,63.90
2018-06-25T20:39:33.169Z,65.40
2018-06-25T20:42:01.808Z,65.00
2018-06-25T20:44:31.654Z,66.30
2018-06-25T20:47:00.078Z,67.00
2018-06-25T20:49:28.475Z,68.00
2018-06-25T20:51:56.878Z,68.10
2018-06-25T20:54:25.230Z,69.20
2018-06-25T20:56:53.637Z,69.60
2018-06-25T20:59:22.033Z,69.40
2018-06-25T21:01:50.360Z,69.40
2018-06-25T21:04:18.788Z,69.90
2018-06-25T21:06:47.240Z,71.40
2018-06-25T21:09:16.142Z,71.90
2018-06-25T21:11:44.504Z,72.10
2018-06-25T21:14:13.019Z,72.50
2018-06-25T21:16:41.532Z,72.90
2018-06-25T21:19:10.205Z,73.00
2018-06-25T21:21:38.751Z,73.30
2018-06-25T21:24:07.507Z,73.50
2018-06-25T21:26:35.908Z,74.30
2018-06-25T21:29:05.700Z,74.70
2018-06-25T21:31:34.565Z,75.50
2018-06-25T21:34:03.585Z,75.70
2018-06-25T21:36:32.041Z,76.20
2018-06-25T21:39:00.717Z,77.10
2018-06-25T21:41:29.245Z,77.10
2018-06-25T21:43:58.482Z,77.60
2018-06-25T21:46:26.885Z,77.90
2018-06-25T21:48:55.392Z,78.10
2018-06-25T21:51:31.372Z,78.40
2018-06-25T21:53:59.994Z,78.90
2018-06-25T21:56:28.416Z,78.70
2018-06-25T21:58:56.892Z,78.80
2018-06-25T22:01:25.370Z,78.60
2018-06-25T22:03:53.994Z,79.20
2018-06-25T22:06:22.674Z,79.50
2018-06-25T22:08:51.053Z,79.50
2018-06-25T22:11:19.534Z,79.60
2018-06-25T22:13:49.022Z,80.50
2018-06-25T22:16:17.799Z,80.80
2018-06-25T22:18:47.606Z,80.80
2018-06-25T22:21:16.023Z,81.20
2018-06-25T22:23:44.524Z,81.80
2018-06-25T22:26:12.916Z,81.50
2018-06-25T22:28:41.361Z,81.80
2018-06-25T22:31:09.838Z,81.40
2018-06-25T22:33:38.323Z,81.20
2018-06-25T22:36:07.911Z,82.30
2018-06-25T22:38:36.327Z,82.30
2018-06-25T22:41:04.801Z,82.30
2018-06-25T22:43:33.167Z,82.20
2018-06-25T22:46:01.627Z,82.00
2018-06-25T22:48:30.026Z,82.40
2018-06-25T22:50:58.473Z,82.40
2018-06-25T22:53:26.829Z,82.20
2018-06-25T22:55:55.315Z,82.20
2018-06-25T22:58:27.363Z,82.10
2018-06-25T23:00:55.764Z,82.90
2018-06-25T23:03:24.171Z,82.60
2018-06-25T23:05:52.655Z,83.30
2018-06-25T23:08:21.048Z,83.50
2018-06-25T23:10:49.510Z,83.40
2018-06-25T23:13:18.003Z,83.20
2018-06-25T23:15:46.411Z,83.10
2018-06-25T23:18:14.942Z,83.40
2018-06-25T23:20:44.430Z,83.40
2018-06-25T23:23:12.779Z,83.60
2018-06-25T23:25:41.144Z,83.30
2018-06-25T23:28:09.747Z,84.10
2018-06-25T23:30:38.122Z,83.80
2018-06-25T23:33:06.467Z,84.20
2018-06-25T23:35:34.850Z,84.80
2018-06-25T23:38:03.330Z,84.60
2018-06-25T23:40:31.702Z,85.10
2018-06-25T23:43:16.591Z,85.20
2018-06-25T23:45:45.093Z,84.80
2018-06-25T23:48:13.700Z,84.30
2018-06-25T23:50:42.127Z,84.80
2018-06-25T23:53:10.508Z,84.80
2018-06-25T23:55:38.910Z,84.00
